createdAt,value
2022-09-27T00:04:30.185Z,61.56
2022-09-27T00:10:01.301Z,62.13
2022-09-27T00:15:32.444Z,62.19
2022-09-27T00:21:12.730Z,61.89
2022-09-27T00:26:44.243Z,62.21
2022-09-27T00:32:15.160Z,62.29
2022-09-27T00:37:48.946Z,62.17
2022-09-27T00:43:22.651Z,62.30
2022-09-27T00:49:04.719Z,62.45
2022-09-27T00:54:39.543Z,62.47
2022-09-27T01:00:12.681Z,62.61
2022-09-27T01:05:44.092Z,62.79
2022-09-27T01:11:27.526Z,62.65
2022-09-27T01:17:27.882Z,62.77
2022-09-27T01:23:29.988Z,62.81
2022-09-27T01:29:29.167Z,62.44
2022-09-27T01:35:08.729Z,62.68
2022-09-27T01:40:50.934Z,63.27
2022-09-27T01:46:46.532Z,62.90
2022-09-27T01:52:31.362Z,62.98
2022-09-27T01:58:15.010Z,63.30
2022-09-27T02:03:49.207Z,62.94
2022-09-27T02:09:57.821Z,63.10
2022-09-27T02:16:03.619Z,63.01
2022-09-27T02:22:17.424Z,63.32
2022-09-27T02:27:48.688Z,63.60
2022-09-27T02:33:30.782Z,63.57
2022-09-27T02:39:02.213Z,63.67
2022-09-27T02:44:36.532Z,63.53
2022-09-27T02:50:08.181Z,63.43
2022-09-27T02:55:51.590Z,63.77
2022-09-27T03:02:10.976Z,63.56
2022-09-27T03:08:12.734Z,63.54
2022-09-27T03:14:01.787Z,63.62
2022-09-27T03:19:37.692Z,64.11
2022-09-27T03:25:32.220Z,63.55
2022-09-27T03:31:03.838Z,64.05
2022-09-27T03:36:54.201Z,63.67
2022-09-27T03:42:25.515Z,64.20
2022-09-27T03:47:58.061Z,64.03
2022-09-27T03:53:29.372Z,64.28
2022-09-27T03:59:01.348Z,64.21
2022-09-27T04:04:35.681Z,63.83
2022-09-27T04:10:07.605Z,64.45
2022-09-27T04:15:40.229Z,64.33
2022-09-27T04:21:37.516Z,64.46
2022-09-27T04:27:10.872Z,64.49
2022-09-27T04:32:46.556Z,64.24
2022-09-27T04:38:36.604Z,64.52
2022-09-27T04:44:08.051Z,63.90
2022-09-27T04:49:39.811Z,64.15
2022-09-27T04:55:11.723Z,64.54
2022-09-27T05:00:43.470Z,63.99
2022-09-27T05:06:33.832Z,64.21
2022-09-27T05:12:13.771Z,64.38
2022-09-27T05:18:20.453Z,64.01
2022-09-27T05:24:17.762Z,63.99
2022-09-27T05:29:49.700Z,64.27
2022-09-27T05:35:30.777Z,64.02
2022-09-27T05:41:04.379Z,63.89
2022-09-27T05:46:40.186Z,63.79
2022-09-27T05:52:16.088Z,63.93
2022-09-27T05:58:02.997Z,63.71
2022-09-27T06:03:43.170Z,63.83
2022-09-27T06:09:44.445Z,63.27
2022-09-27T06:15:17.014Z,64.08
2022-09-27T06:20:49.848Z,63.41
2022-09-27T06:26:22.248Z,63.42
2022-09-27T06:32:03.755Z,63.36
2022-09-27T06:37:47.584Z,63.48
2022-09-27T06:43:20.738Z,63.50
2022-09-27T06:49:12.973Z,62.96
2022-09-27T06:54:45.383Z,63.01
2022-09-27T07:00:27.340Z,63.01
2022-09-27T07:06:34.672Z,63.01
2022-09-27T07:12:24.844Z,63.29
2022-09-27T07:17:58.931Z,63.07
2022-09-27T07:23:32.778Z,62.79
2022-09-27T07:29:04.289Z,63.06
2022-09-27T07:34:36.620Z,62.58
2022-09-27T07:40:09.710Z,62.71
2022-09-27T07:45:41.766Z,62.80
2022-09-27T07:51:35.269Z,62.62
2022-09-27T07:57:30.276Z,62.96
2022-09-27T08:03:07.789Z,62.93
2022-09-27T08:08:39.678Z,63.00
2022-09-27T08:14:11.894Z,63.19
2022-09-27T08:19:50.103Z,63.38
2022-09-27T08:25:44.944Z,63.30
2022-09-27T08:31:31.655Z,63.17
2022-09-27T08:37:03.609Z,63.18
2022-09-27T08:42:48.890Z,63.09
2022-09-27T08:48:21.223Z,63.04
2022-09-27T08:53:58.545Z,63.29
2022-09-27T08:59:42.766Z,63.51
2022-09-27T09:05:26.493Z,62.93
2022-09-27T09:11:27.012Z,62.82
2022-09-27T09:17:19.876Z,62.83
2022-09-27T09:23:11.045Z,62.71
2022-09-27T09:29:12.563Z,62.60
2022-09-27T09:34:50.132Z,62.48
2022-09-27T09:40:46.042Z,62.48
2022-09-27T09:46:28.085Z,62.27
2022-09-27T09:52:09.083Z,62.15
2022-09-27T09:57:52.722Z,62.21
2022-09-27T10:03:27.925Z,62.12
2022-09-27T10:09:00.197Z,62.23
2022-09-27T10:14:47.541Z,62.10
2022-09-27T10:20:40.362Z,61.93
2022-09-27T10:26:11.822Z,61.88
2022-09-27T10:31:50.505Z,61.89
2022-09-27T10:37:24.645Z,62.08
2022-09-27T10:43:38.608Z,61.75
2022-09-27T10:49:30.578Z,61.97
2022-09-27T10:55:20.525Z,61.69
2022-09-27T11:01:06.490Z,61.62
2022-09-27T11:06:51.642Z,61.54
2022-09-27T11:12:25.422Z,61.59
2022-09-27T11:18:12.425Z,61.48
2022-09-27T11:24:04.329Z,62.11
2022-09-27T11:30:02.202Z,61.71
2022-09-27T11:36:10.779Z,62.13
2022-09-27T11:41:55.778Z,61.21
2022-09-27T11:47:34.797Z,60.82
2022-09-27T11:53:24.909Z,60.71
2022-09-27T11:59:20.188Z,60.50
2022-09-27T12:05:14.319Z,61.04
2022-09-27T12:10:52.404Z,60.96
2022-09-27T12:16:24.494Z,60.58
2022-09-27T12:21:58.847Z,60.84
2022-09-27T12:27:41.698Z,60.86
2022-09-27T12:33:29.681Z,60.90
2022-09-27T12:39:05.467Z,60.32
2022-09-27T12:44:40.743Z,59.71
2022-09-27T12:50:32.829Z,59.29
2022-09-27T12:56:25.263Z,59.32
2022-09-27T13:02:27.688Z,59.60
2022-09-27T13:08:03.535Z,58.98
2022-09-27T13:13:38.089Z,58.93
2022-09-27T13:19:36.304Z,58.57
2022-09-27T13:25:48.069Z,58.61
2022-09-27T13:32:15.124Z,58.84
2022-09-27T13:38:23.565Z,58.83
2022-09-27T13:44:03.724Z,58.71
2022-09-27T13:49:50.843Z,59.03
2022-09-27T13:55:48.305Z,59.22
2022-09-27T14:01:48.687Z,59.54
2022-09-27T14:07:35.858Z,59.25
2022-09-27T14:13:07.810Z,59.23
2022-09-27T14:18:53.395Z,59.42
2022-09-27T14:24:59.524Z,59.00
2022-09-27T14:31:18.091Z,59.22
2022-09-27T14:37:38.330Z,59.42
2022-09-27T14:43:23.860Z,59.12
2022-09-27T14:48:56.467Z,59.30
2022-09-27T14:54:30.720Z,59.46
2022-09-27T15:00:16.035Z,59.48
2022-09-27T15:05:49.032Z,59.41
2022-09-27T15:11:20.656Z,59.95
2022-09-27T15:16:53.145Z,59.58
2022-09-27T15:22:47.667Z,59.58
2022-09-27T15:28:19.897Z,59.52
2022-09-27T15:33:56.167Z,59.79
2022-09-27T15:39:32.520Z,59.60
2022-09-27T15:45:42.500Z,59.88
2022-09-27T15:51:46.543Z,59.92
2022-09-27T15:57:17.584Z,59.72
2022-09-27T16:02:48.612Z,60.21
2022-09-27T16:08:19.643Z,59.83
2022-09-27T16:13:53.079Z,59.83
2022-09-27T16:19:24.015Z,59.95
2022-09-27T16:24:56.450Z,59.96
2022-09-27T16:30:28.106Z,60.12
2022-09-27T16:36:07.086Z,60.09
2022-09-27T16:41:41.482Z,60.35
2022-09-27T16:47:12.287Z,60.32
2022-09-27T16:52:47.661Z,60.38
2022-09-27T16:58:18.937Z,60.35
2022-09-27T17:03:55.581Z,60.31
2022-09-27T17:09:28.300Z,60.21
2022-09-27T17:14:59.887Z,60.10
2022-09-27T17:20:31.301Z,59.91
2022-09-27T17:26:08.492Z,60.22
2022-09-27T17:31:41.150Z,59.98
2022-09-27T17:37:12.213Z,60.01
2022-09-27T17:42:43.495Z,60.08
2022-09-27T17:48:33.415Z,60.05
2022-09-27T17:54:07.444Z,59.85
2022-09-27T17:59:38.132Z,60.28
2022-09-27T18:05:10.011Z,60.31
2022-09-27T18:10:41.260Z,60.13
2022-09-27T18:16:14.867Z,59.92
2022-09-27T18:21:46.357Z,59.74
2022-09-27T18:27:21.494Z,59.56
2022-09-27T18:32:53.147Z,59.91
2022-09-27T18:38:24.216Z,59.44
2022-09-27T18:43:59.975Z,59.40
2022-09-27T18:49:33.995Z,59.21
2022-09-27T18:55:05.789Z,59.32
2022-09-27T19:00:37.165Z,59.15
2022-09-27T19:06:12.002Z,59.45
2022-09-27T19:11:43.154Z,59.22
2022-09-27T19:17:14.639Z,59.57
2022-09-27T19:23:12.772Z,59.42
2022-09-27T19:28:47.235Z,59.75
2022-09-27T19:34:18.663Z,59.48
2022-09-27T19:39:54.729Z,59.33
2022-09-27T19:45:26.676Z,59.08
2022-09-27T19:50:59.689Z,59.33
2022-09-27T19:56:30.536Z,59.30
2022-09-27T20:02:01.976Z,59.65
2022-09-27T20:07:35.181Z,59.71
2022-09-27T20:13:06.650Z,59.42
2022-09-27T20:18:45.245Z,59.53
2022-09-27T20:24:16.341Z,59.73
2022-09-27T20:29:48.287Z,60.19
2022-09-27T20:35:19.418Z,59.34
2022-09-27T20:40:55.600Z,60.34
2022-09-27T20:46:37.457Z,59.67
2022-09-27T20:52:08.806Z,60.05
2022-09-27T20:57:56.492Z,60.43
2022-09-27T21:03:28.216Z,60.34
2022-09-27T21:09:00.228Z,60.07
2022-09-27T21:14:31.054Z,60.35
2022-09-27T21:20:02.826Z,59.55
2022-09-27T21:25:34.076Z,60.49
2022-09-27T21:31:21.613Z,60.07
2022-09-27T21:36:53.797Z,60.39
2022-09-27T21:48:51.145Z,60.45
2022-09-27T21:54:22.885Z,60.57
2022-09-27T21:59:54.155Z,60.18
2022-09-27T22:05:25.140Z,60.13
2022-09-27T22:10:56.301Z,60.66
2022-09-27T22:16:27.742Z,60.57
2022-09-27T22:21:59.219Z,60.64
2022-09-27T22:27:30.035Z,60.50
2022-09-27T22:33:01.533Z,60.67
2022-09-27T22:38:32.895Z,60.54
2022-09-27T22:44:04.096Z,60.70
2022-09-27T22:49:35.350Z,60.88
2022-09-27T22:55:07.255Z,60.70
2022-09-27T23:00:39.042Z,60.91
2022-09-27T23:06:10.833Z,60.56
2022-09-27T23:11:42.231Z,60.78
2022-09-27T23:17:14.271Z,60.97
2022-09-27T23:22:45.687Z,60.77
2022-09-27T23:28:17.153Z,60.57
2022-09-27T23:33:50.212Z,61.09
2022-09-27T23:39:21.466Z,61.07
2022-09-27T23:44:53.675Z,60.30
2022-09-27T23:50:25.678Z,60.96
2022-09-27T23:56:16.988Z,60.44
